createdAt,value
2023-02-11T00:01:28.509Z,41.81
2023-02-11T00:03:58.096Z,41.86
2023-02-11T00:06:30.153Z,42.02
2023-02-11T00:08:58.500Z,41.77
2023-02-11T00:11:30.359Z,41.90
2023-02-11T00:14:00.441Z,41.95
2023-02-11T00:16:29.587Z,41.73
2023-02-11T00:18:58.774Z,41.87
2023-02-11T00:21:29.058Z,41.94
2023-02-11T00:23:59.763Z,41.75
2023-02-11T00:26:31.268Z,41.84
2023-02-11T00:29:00.851Z,41.81
2023-02-11T00:31:30.302Z,42.10
2023-02-11T00:33:58.630Z,42.14
2023-02-11T00:36:30.486Z,41.92
2023-02-11T00:39:00.971Z,41.89
2023-02-11T00:41:29.540Z,42.04
2023-02-11T00:43:58.077Z,42.10
2023-02-11T00:46:26.498Z,42.05
2023-02-11T00:48:57.683Z,42.16
2023-02-11T00:51:28.360Z,41.99
2023-02-11T00:53:56.873Z,42.09
2023-02-11T00:56:25.301Z,42.41
2023-02-11T00:58:54.034Z,42.25
2023-02-11T01:01:22.540Z,42.37
2023-02-11T01:03:50.886Z,42.16
2023-02-11T01:06:19.622Z,42.13
2023-02-11T01:08:49.271Z,42.30
2023-02-11T01:11:20.586Z,42.40
2023-02-11T01:13:49.955Z,42.35
2023-02-11T01:16:18.803Z,42.28
2023-02-11T01:18:47.263Z,42.50
2023-02-11T01:21:16.182Z,42.39
2023-02-11T01:23:44.406Z,42.55
2023-02-11T01:26:14.079Z,42.32
2023-02-11T01:28:42.413Z,42.42
2023-02-11T01:31:10.675Z,42.38
2023-02-11T01:33:39.045Z,42.31
2023-02-11T01:36:08.579Z,42.56
2023-02-11T01:38:37.218Z,42.65
2023-02-11T01:41:08.731Z,42.82
2023-02-11T01:43:41.495Z,42.73
2023-02-11T01:46:31.309Z,42.96
2023-02-11T01:49:06.205Z,42.89
2023-02-11T01:51:39.448Z,42.62
2023-02-11T01:54:27.830Z,42.81
2023-02-11T01:57:17.858Z,42.82
2023-02-11T01:59:57.936Z,43.08
2023-02-11T02:02:34.700Z,42.70
2023-02-11T02:05:10.308Z,43.08
2023-02-11T02:07:43.768Z,43.17
2023-02-11T02:10:20.506Z,43.13
2023-02-11T02:12:48.895Z,43.13
2023-02-11T02:15:28.542Z,42.92
2023-02-11T02:18:08.052Z,42.84
2023-02-11T02:21:14.136Z,43.12
2023-02-11T02:24:35.416Z,43.13
2023-02-11T02:27:41.466Z,42.75
2023-02-11T02:30:50.811Z,43.04
2023-02-11T02:33:39.905Z,43.04
2023-02-11T02:36:16.586Z,43.12
2023-02-11T02:38:54.087Z,43.16
2023-02-11T02:41:29.180Z,43.25
2023-02-11T02:43:57.544Z,43.14
2023-02-11T02:46:28.842Z,43.28
2023-02-11T02:48:59.905Z,42.94
2023-02-11T02:51:54.108Z,42.96
2023-02-11T02:55:13.783Z,42.87
2023-02-11T02:58:01.375Z,43.06
2023-02-11T03:00:40.088Z,43.08
2023-02-11T03:03:24.374Z,43.38
2023-02-11T03:05:59.601Z,43.31
2023-02-11T03:08:34.623Z,43.33
2023-02-11T03:11:03.587Z,42.94
2023-02-11T03:13:35.016Z,43.03
2023-02-11T03:16:10.543Z,43.50
2023-02-11T03:18:43.851Z,43.10
2023-02-11T03:21:15.411Z,43.50
2023-02-11T03:23:49.756Z,43.11
2023-02-11T03:26:25.132Z,43.41
2023-02-11T03:29:03.395Z,43.50
2023-02-11T03:31:40.853Z,43.49
2023-02-11T03:34:15.726Z,43.58
2023-02-11T03:36:50.410Z,43.75
2023-02-11T03:39:23.886Z,43.74
2023-02-11T03:41:54.270Z,43.45
2023-02-11T03:44:24.190Z,43.65
2023-02-11T03:46:55.063Z,43.58
2023-02-11T03:49:26.416Z,43.69
2023-02-11T03:51:57.264Z,43.66
2023-02-11T03:54:31.574Z,43.43
2023-02-11T03:57:02.717Z,43.95
2023-02-11T03:59:31.374Z,43.65
2023-02-11T04:02:00.379Z,44.00
2023-02-11T04:04:28.689Z,43.74
2023-02-11T04:06:58.701Z,43.96
2023-02-11T04:09:26.940Z,44.12
2023-02-11T04:11:55.195Z,43.66
2023-02-11T04:14:23.420Z,44.12
2023-02-11T04:16:51.670Z,44.08
2023-02-11T04:19:19.904Z,44.04
2023-02-11T04:21:48.292Z,44.04
2023-02-11T04:24:17.909Z,44.28
2023-02-11T04:26:46.164Z,44.30
2023-02-11T04:29:14.444Z,43.79
2023-02-11T04:31:42.740Z,44.23
2023-02-11T04:34:10.981Z,44.33
2023-02-11T04:36:39.242Z,44.16
2023-02-11T04:39:07.521Z,44.20
2023-02-11T04:41:37.176Z,44.20
2023-02-11T04:44:06.375Z,44.21
2023-02-11T04:46:34.790Z,44.20
2023-02-11T04:49:03.127Z,44.52
2023-02-11T04:51:31.969Z,44.12
2023-02-11T04:54:00.413Z,44.16
2023-02-11T04:56:28.738Z,44.34
2023-02-11T04:58:58.387Z,44.27
2023-02-11T05:01:26.941Z,44.70
2023-02-11T05:03:55.235Z,44.21
2023-02-11T05:06:23.557Z,44.50
2023-02-11T05:08:52.015Z,44.79
2023-02-11T05:11:22.960Z,44.44
2023-02-11T05:13:51.396Z,44.44
2023-02-11T05:16:21.305Z,44.52
2023-02-11T05:18:52.399Z,45.07
2023-02-11T05:21:21.589Z,44.65
2023-02-11T05:23:50.093Z,44.97
2023-02-11T05:26:19.461Z,45.18
2023-02-11T05:28:47.727Z,45.01
2023-02-11T05:31:16.920Z,44.96
2023-02-11T05:33:46.647Z,45.21
2023-02-11T05:36:16.775Z,44.84
2023-02-11T05:38:45.092Z,44.91
2023-02-11T05:41:14.011Z,45.12
2023-02-11T05:43:42.294Z,45.24
2023-02-11T05:46:10.683Z,45.06
2023-02-11T05:48:39.008Z,45.25
2023-02-11T05:51:08.779Z,45.57
2023-02-11T05:53:37.182Z,45.19
2023-02-11T05:56:06.165Z,45.72
2023-02-11T05:58:34.461Z,45.54
2023-02-11T06:01:02.793Z,45.62
2023-02-11T06:03:31.118Z,45.66
2023-02-11T06:05:59.416Z,45.33
2023-02-11T06:08:29.089Z,45.82
2023-02-11T06:10:57.330Z,45.93
2023-02-11T06:13:25.571Z,45.65
2023-02-11T06:16:04.101Z,46.00
2023-02-11T06:18:33.576Z,45.55
2023-02-11T06:21:02.142Z,45.83
2023-02-11T06:23:31.756Z,45.92
2023-02-11T06:26:03.795Z,45.98
2023-02-11T06:28:32.536Z,45.71
2023-02-11T06:31:06.746Z,46.11
2023-02-11T06:33:35.569Z,46.05
2023-02-11T06:36:05.337Z,46.18
2023-02-11T06:38:34.930Z,45.92
2023-02-11T06:41:03.173Z,46.05
2023-02-11T06:43:31.508Z,46.27
2023-02-11T06:45:59.762Z,45.94
2023-02-11T06:48:28.085Z,46.10
2023-02-11T06:50:56.335Z,46.30
2023-02-11T06:53:25.287Z,46.07
2023-02-11T06:55:54.936Z,46.23
2023-02-11T06:58:23.245Z,46.17
2023-02-11T07:00:52.291Z,46.61
2023-02-11T07:03:20.588Z,46.60
2023-02-11T07:05:49.215Z,46.74
2023-02-11T07:08:17.736Z,46.79
2023-02-11T07:10:45.972Z,46.85
2023-02-11T07:13:15.594Z,46.86
2023-02-11T07:15:43.939Z,46.75
2023-02-11T07:18:14.627Z,47.08
2023-02-11T07:20:43.389Z,46.98
2023-02-11T07:23:11.769Z,46.92
2023-02-11T07:25:39.975Z,47.10
2023-02-11T07:28:08.263Z,47.15
2023-02-11T07:30:37.981Z,47.27
2023-02-11T07:33:06.242Z,47.38
2023-02-11T07:35:34.570Z,47.33
2023-02-11T07:38:02.821Z,47.35
2023-02-11T07:40:31.611Z,47.60
2023-02-11T07:43:01.730Z,47.38
2023-02-11T07:45:30.130Z,47.54
2023-02-11T07:47:59.769Z,47.76
2023-02-11T07:50:28.154Z,47.70
2023-02-11T07:52:56.475Z,47.84
2023-02-11T07:55:24.749Z,47.85
2023-02-11T07:57:53.010Z,47.92
2023-02-11T08:00:21.444Z,47.80
2023-02-11T08:02:49.657Z,47.82
2023-02-11T08:05:19.581Z,47.90
2023-02-11T08:07:47.829Z,47.72
2023-02-11T08:10:16.297Z,48.03
2023-02-11T08:12:45.781Z,48.02
2023-02-11T08:15:14.358Z,47.95
2023-02-11T08:17:42.629Z,48.12
2023-02-11T08:20:11.966Z,48.21
2023-02-11T08:22:41.628Z,48.21
2023-02-11T08:25:09.930Z,48.38
2023-02-11T08:27:38.211Z,48.39
2023-02-11T08:30:07.977Z,48.64
2023-02-11T08:32:36.845Z,48.57
2023-02-11T08:35:07.816Z,48.74
2023-02-11T08:37:36.269Z,48.65
2023-02-11T08:40:07.213Z,48.63
2023-02-11T08:42:35.535Z,48.74
2023-02-11T08:45:05.085Z,48.77
2023-02-11T08:47:33.426Z,48.73
2023-02-11T08:50:01.676Z,48.80
2023-02-11T08:52:29.973Z,48.88
2023-02-11T08:54:58.855Z,48.70
2023-02-11T08:57:28.724Z,48.90
2023-02-11T08:59:57.000Z,48.77
2023-02-11T09:02:25.403Z,49.27
2023-02-11T09:04:53.735Z,49.19
2023-02-11T09:07:22.005Z,49.59
2023-02-11T09:09:50.243Z,49.62
2023-02-11T09:12:18.518Z,49.63
2023-02-11T09:14:48.140Z,49.53
2023-02-11T09:17:16.385Z,49.35
2023-02-11T09:19:44.672Z,49.22
2023-02-11T09:22:12.974Z,49.34
2023-02-11T09:24:41.326Z,49.36
2023-02-11T09:27:09.569Z,49.57
2023-02-11T09:29:37.854Z,49.45
2023-02-11T09:32:09.837Z,49.57
2023-02-11T09:34:38.512Z,49.09
2023-02-11T09:37:06.768Z,49.14
2023-02-11T09:39:35.014Z,49.39
2023-02-11T09:42:38.097Z,49.42
2023-02-11T09:45:15.886Z,49.34
2023-02-11T09:47:51.766Z,49.13
2023-02-11T09:50:30.649Z,49.39
2023-02-11T09:53:03.381Z,49.41
2023-02-11T09:55:37.578Z,49.15
2023-02-11T09:58:12.637Z,49.10
2023-02-11T10:00:46.121Z,49.21
2023-02-11T10:03:50.130Z,49.33
2023-02-11T10:06:37.423Z,49.60
2023-02-11T10:09:34.986Z,49.64
2023-02-11T10:12:21.022Z,49.75
2023-02-11T10:15:09.697Z,50.17
2023-02-11T10:17:46.449Z,49.55
2023-02-11T10:20:27.124Z,48.85
2023-02-11T10:22:58.696Z,48.52
2023-02-11T10:25:29.323Z,48.10
2023-02-11T10:28:01.353Z,47.74
2023-02-11T10:30:34.956Z,47.26
2023-02-11T10:33:08.535Z,46.97
2023-02-11T10:35:39.560Z,46.66
2023-02-11T10:38:09.449Z,46.46
2023-02-11T10:40:37.822Z,45.93
2023-02-11T10:43:11.840Z,45.88
2023-02-11T10:45:44.440Z,45.64
2023-02-11T10:48:44.833Z,45.38
2023-02-11T10:51:21.934Z,45.06
2023-02-11T10:53:52.264Z,44.98
2023-02-11T10:56:28.519Z,45.04
2023-02-11T10:59:02.024Z,44.75
2023-02-11T11:01:42.472Z,44.79
2023-02-11T11:04:36.616Z,44.34
2023-02-11T11:07:17.766Z,44.31
2023-02-11T11:09:51.870Z,44.56
2023-02-11T11:12:48.983Z,44.32
2023-02-11T11:15:23.727Z,44.34
2023-02-11T11:18:20.998Z,44.38
2023-02-11T11:21:00.023Z,44.68
2023-02-11T11:23:31.251Z,44.50
2023-02-11T11:26:04.950Z,44.19
2023-02-11T11:28:38.973Z,44.59
2023-02-11T11:31:15.357Z,44.18
2023-02-11T11:33:45.548Z,44.35
2023-02-11T11:36:18.201Z,44.22
2023-02-11T11:39:03.262Z,44.03
2023-02-11T11:41:34.478Z,44.25
2023-02-11T11:44:16.192Z,44.03
2023-02-11T11:46:46.984Z,44.18
2023-02-11T11:49:26.931Z,44.33
2023-02-11T11:52:11.076Z,44.22
2023-02-11T11:54:41.968Z,44.46
2023-02-11T11:57:16.317Z,44.65
2023-02-11T11:59:44.715Z,44.70
2023-02-11T12:02:37.026Z,44.62
2023-02-11T12:05:13.113Z,44.73
2023-02-11T12:07:59.882Z,44.48
2023-02-11T12:10:56.639Z,44.63
2023-02-11T12:13:39.463Z,44.33
2023-02-11T12:16:20.746Z,44.09
2023-02-11T12:19:24.537Z,44.34
2023-02-11T12:22:04.311Z,44.19
2023-02-11T12:24:50.080Z,44.21
2023-02-11T12:27:35.069Z,44.05
2023-02-11T12:30:19.964Z,44.09
2023-02-11T12:32:55.013Z,44.06
2023-02-11T12:35:38.453Z,43.82
2023-02-11T12:38:35.248Z,43.96
2023-02-11T12:41:43.035Z,44.07
2023-02-11T12:44:21.900Z,44.00
2023-02-11T12:46:57.607Z,43.92
2023-02-11T12:49:38.964Z,43.63
2023-02-11T12:52:26.364Z,43.58
2023-02-11T12:54:59.792Z,43.58
2023-02-11T12:57:30.753Z,43.50
2023-02-11T13:00:06.618Z,43.21
2023-02-11T13:02:46.842Z,43.39
2023-02-11T13:05:26.474Z,43.19
2023-02-11T13:08:01.340Z,43.33
2023-02-11T13:10:35.320Z,43.44
2023-02-11T13:13:19.199Z,43.28
2023-02-11T13:15:53.370Z,43.40
2023-02-11T13:18:36.971Z,43.36
2023-02-11T13:21:33.507Z,42.87
2023-02-11T13:24:17.224Z,42.95
2023-02-11T13:26:55.629Z,43.03
2023-02-11T13:29:37.315Z,42.82
2023-02-11T13:32:13.232Z,42.81
2023-02-11T13:34:59.904Z,42.79
2023-02-11T13:37:33.273Z,42.80
2023-02-11T13:40:04.521Z,42.93
2023-02-11T13:42:35.593Z,42.65
2023-02-11T13:45:04.213Z,42.64
2023-02-11T13:47:36.719Z,42.62
2023-02-11T13:50:10.594Z,42.62
2023-02-11T13:52:42.712Z,42.64
2023-02-11T13:55:22.858Z,42.47
2023-02-11T13:58:19.656Z,42.46
2023-02-11T14:00:51.505Z,42.54
2023-02-11T14:03:49.836Z,42.46
2023-02-11T14:06:45.400Z,42.40
2023-02-11T14:09:40.379Z,42.34
2023-02-11T14:12:35.683Z,42.36
2023-02-11T14:15:21.830Z,42.32
2023-02-11T14:17:50.106Z,42.31
2023-02-11T14:20:44.680Z,42.33
2023-02-11T14:23:27.976Z,42.29
2023-02-11T14:26:34.862Z,42.30
2023-02-11T14:29:14.117Z,42.25
2023-02-11T14:31:50.607Z,42.37
2023-02-11T14:34:47.428Z,42.33
2023-02-11T14:37:32.564Z,42.42
2023-02-11T14:40:16.308Z,42.53
2023-02-11T14:42:44.886Z,42.50
2023-02-11T14:45:21.585Z,42.40
2023-02-11T14:47:56.291Z,42.30
2023-02-11T14:50:28.583Z,42.39
2023-02-11T14:53:02.330Z,42.26
2023-02-11T14:55:37.079Z,42.23
2023-02-11T14:58:14.630Z,42.09
2023-02-11T15:00:52.362Z,42.32
2023-02-11T15:03:34.350Z,42.25
2023-02-11T15:06:07.444Z,42.37
2023-02-11T15:08:43.937Z,42.33
2023-02-11T15:11:15.513Z,42.14
2023-02-11T15:13:48.128Z,42.06
2023-02-11T15:16:20.732Z,41.72
2023-02-11T15:18:53.212Z,41.96
2023-02-11T15:21:24.303Z,41.83
2023-02-11T15:24:07.046Z,41.76
2023-02-11T15:26:35.596Z,41.91
2023-02-11T15:29:04.932Z,41.79
2023-02-11T15:31:35.093Z,41.70
2023-02-11T15:34:09.701Z,41.76
2023-02-11T15:36:39.778Z,41.82
2023-02-11T15:39:21.337Z,41.88
2023-02-11T15:41:49.572Z,41.86
2023-02-11T15:44:32.961Z,41.83
2023-02-11T15:47:01.552Z,41.90
2023-02-11T15:49:29.868Z,42.10
2023-02-11T15:51:59.065Z,41.97
2023-02-11T15:54:32.085Z,41.95
2023-02-11T15:57:06.401Z,42.23
2023-02-11T15:59:39.184Z,42.06
2023-02-11T16:02:14.504Z,42.12
2023-02-11T16:04:51.446Z,42.15
2023-02-11T16:07:42.866Z,42.14
2023-02-11T16:10:29.067Z,42.12
2023-02-11T16:13:17.714Z,42.27
2023-02-11T16:15:51.144Z,42.25
2023-02-11T16:18:39.865Z,42.28
2023-02-11T16:21:16.865Z,42.27
2023-02-11T16:23:52.805Z,42.20
2023-02-11T16:26:31.616Z,42.21
2023-02-11T16:29:14.302Z,42.37
2023-02-11T16:31:45.150Z,42.21
2023-02-11T16:34:17.082Z,42.24
2023-02-11T16:36:47.138Z,42.29
2023-02-11T16:39:16.774Z,42.46
2023-02-11T16:41:46.378Z,42.64
2023-02-11T16:44:14.906Z,42.46
2023-02-11T16:46:43.339Z,42.65
2023-02-11T16:49:17.463Z,42.58
2023-02-11T16:51:48.950Z,42.61
2023-02-11T16:54:19.251Z,42.70
2023-02-11T16:56:49.105Z,42.78
2023-02-11T16:59:17.526Z,42.66
2023-02-11T17:01:47.153Z,42.75
2023-02-11T17:04:20.443Z,42.88
2023-02-11T17:06:49.217Z,42.81
2023-02-11T17:09:21.657Z,43.13
2023-02-11T17:11:52.064Z,43.05
2023-02-11T17:14:21.248Z,42.82
2023-02-11T17:16:50.064Z,43.02
2023-02-11T17:19:21.836Z,43.05
2023-02-11T17:21:52.042Z,42.89
2023-02-11T17:24:21.356Z,43.03
2023-02-11T17:26:51.822Z,43.12
2023-02-11T17:29:23.865Z,43.08
2023-02-11T17:31:53.337Z,43.15
2023-02-11T17:34:22.908Z,43.21
2023-02-11T17:36:51.837Z,43.25
2023-02-11T17:39:21.190Z,43.14
2023-02-11T17:41:50.989Z,43.20
2023-02-11T17:44:19.455Z,43.16
2023-02-11T17:46:47.769Z,43.38
2023-02-11T17:49:16.367Z,43.32
2023-02-11T17:51:44.972Z,43.38
2023-02-11T17:54:15.336Z,43.48
2023-02-11T17:56:43.983Z,43.52
2023-02-11T17:59:15.090Z,43.51
2023-02-11T18:01:44.524Z,43.53
2023-02-11T18:04:17.237Z,43.46
2023-02-11T18:06:46.436Z,43.62
2023-02-11T18:09:14.725Z,43.49
2023-02-11T18:11:43.340Z,43.60
2023-02-11T18:14:13.526Z,43.74
2023-02-11T18:16:44.788Z,43.50
2023-02-11T18:19:13.967Z,43.64
2023-02-11T18:21:42.513Z,43.67
2023-02-11T18:24:11.575Z,43.68
2023-02-11T18:26:39.792Z,43.72
2023-02-11T18:29:08.095Z,43.76
2023-02-11T18:31:37.864Z,43.93
2023-02-11T18:34:08.479Z,43.78
2023-02-11T18:36:37.583Z,43.77
2023-02-11T18:39:06.313Z,43.92
2023-02-11T18:41:34.750Z,43.80
2023-02-11T18:44:04.576Z,44.03
2023-02-11T18:46:32.907Z,43.97
2023-02-11T18:49:02.611Z,44.03
2023-02-11T18:51:32.394Z,43.93
2023-02-11T18:54:01.313Z,44.11
2023-02-11T18:56:29.693Z,44.18
2023-02-11T18:59:01.241Z,44.14
2023-02-11T19:01:31.867Z,44.20
2023-02-11T19:04:04.454Z,44.35
2023-02-11T19:06:35.406Z,44.25
2023-02-11T19:09:07.396Z,44.30
2023-02-11T19:11:50.030Z,44.71
2023-02-11T19:14:22.332Z,44.45
2023-02-11T19:16:52.939Z,44.57
2023-02-11T19:19:23.552Z,44.60
2023-02-11T19:21:51.874Z,44.55
2023-02-11T19:24:20.821Z,44.91
2023-02-11T19:26:51.685Z,44.77
2023-02-11T19:29:20.394Z,44.82
2023-02-11T19:31:48.848Z,44.85
2023-02-11T19:34:20.496Z,44.84
2023-02-11T19:36:50.988Z,44.83
2023-02-11T19:39:19.558Z,45.06
2023-02-11T19:41:47.838Z,45.11
2023-02-11T19:44:16.722Z,45.07
2023-02-11T19:46:46.047Z,44.99
2023-02-11T19:49:17.593Z,45.25
2023-02-11T19:51:45.932Z,45.03
2023-02-11T19:54:15.520Z,45.17
2023-02-11T19:56:44.818Z,45.13
2023-02-11T19:59:13.250Z,45.30
2023-02-11T20:01:42.379Z,45.17
2023-02-11T20:04:10.727Z,45.08
2023-02-11T20:06:38.954Z,45.20
2023-02-11T20:09:12.387Z,45.22
2023-02-11T20:11:42.999Z,45.44
2023-02-11T20:14:14.842Z,45.27
2023-02-11T20:16:49.236Z,45.47
2023-02-11T20:19:19.515Z,45.52
2023-02-11T20:21:50.234Z,45.47
2023-02-11T20:24:20.025Z,45.41
2023-02-11T20:26:51.682Z,45.53
2023-02-11T20:29:20.584Z,45.75
2023-02-11T20:31:50.619Z,45.50
2023-02-11T20:34:19.380Z,45.58
2023-02-11T20:36:52.112Z,45.53
2023-02-11T20:39:22.737Z,45.85
2023-02-11T20:41:53.847Z,45.67
2023-02-11T20:44:22.887Z,45.70
2023-02-11T20:46:53.813Z,45.80
2023-02-11T20:49:25.348Z,45.92
2023-02-11T20:51:54.451Z,45.67
2023-02-11T20:54:24.195Z,45.84
2023-02-11T20:56:56.761Z,45.94
2023-02-11T20:59:25.676Z,45.91
2023-02-11T21:01:56.728Z,45.98
2023-02-11T21:04:27.313Z,46.04
2023-02-11T21:06:58.217Z,46.00
2023-02-11T21:09:30.287Z,46.08
2023-02-11T21:12:00.215Z,45.89
2023-02-11T21:14:28.981Z,45.92
2023-02-11T21:16:57.632Z,46.20
2023-02-11T21:19:25.957Z,46.20
2023-02-11T21:21:55.137Z,46.07
2023-02-11T21:24:23.734Z,46.32
2023-02-11T21:26:52.012Z,46.27
2023-02-11T21:29:21.652Z,46.09
2023-02-11T21:31:51.335Z,46.22
2023-02-11T21:34:20.810Z,46.00
2023-02-11T21:36:51.127Z,46.31
2023-02-11T21:39:20.217Z,46.36
2023-02-11T21:41:48.513Z,46.24
2023-02-11T21:44:16.912Z,46.46
2023-02-11T21:46:46.601Z,46.78
2023-02-11T21:49:15.001Z,46.59
2023-02-11T21:51:43.607Z,46.46
2023-02-11T21:54:12.774Z,46.54
2023-02-11T21:56:41.055Z,46.39
2023-02-11T21:59:11.794Z,46.57
2023-02-11T22:01:40.064Z,46.68
2023-02-11T22:04:10.835Z,46.45
2023-02-11T22:06:39.804Z,46.45
2023-02-11T22:09:10.819Z,46.51
2023-02-11T22:11:40.147Z,46.43
2023-02-11T22:14:08.764Z,46.39
2023-02-11T22:16:37.322Z,46.53
2023-02-11T22:19:07.528Z,46.55
2023-02-11T22:21:37.251Z,46.50
2023-02-11T22:24:06.378Z,46.49
2023-02-11T22:26:34.695Z,46.55
2023-02-11T22:29:02.995Z,46.57
2023-02-11T22:31:34.666Z,46.78
2023-02-11T22:34:04.858Z,46.79
2023-02-11T22:36:36.822Z,46.72
2023-02-11T22:39:08.189Z,46.58
2023-02-11T22:41:38.277Z,46.64
2023-02-11T22:44:06.615Z,46.72
2023-02-11T22:46:35.803Z,46.84
2023-02-11T22:49:04.600Z,46.78
2023-02-11T22:51:33.671Z,46.97
2023-02-11T22:54:05.858Z,46.95
2023-02-11T22:56:35.829Z,46.85
2023-02-11T22:59:07.249Z,46.98
2023-02-11T23:01:36.052Z,46.97
2023-02-11T23:04:07.029Z,46.91
2023-02-11T23:06:35.790Z,47.15
2023-02-11T23:09:06.888Z,46.99
2023-02-11T23:11:35.999Z,47.17
2023-02-11T23:14:05.192Z,47.08
2023-02-11T23:16:35.301Z,47.03
2023-02-11T23:19:07.624Z,47.29
2023-02-11T23:21:39.502Z,47.22
2023-02-11T23:24:13.193Z,47.22
2023-02-11T23:26:42.817Z,47.11
2023-02-11T23:29:12.391Z,47.29
2023-02-11T23:31:45.980Z,47.51
2023-02-11T23:34:17.187Z,47.28
2023-02-11T23:36:45.535Z,47.44
2023-02-11T23:39:17.166Z,47.35
2023-02-11T23:41:46.643Z,47.60
2023-02-11T23:44:15.012Z,47.51
2023-02-11T23:46:43.289Z,47.56
2023-02-11T23:49:11.652Z,47.72
2023-02-11T23:51:39.966Z,47.94
2023-02-11T23:54:08.193Z,47.72
2023-02-11T23:56:39.018Z,47.50
2023-02-11T23:59:07.329Z,47.75
